Hauptseite
METAR-TAF:

METAR-TAF

Flughäfen :

CFB Gagetown

Gagetown, Neubraunschweig, Kanada

Breite: 45-50N, Länge: 066-26W, Höhe: 51 m

Beobachtung

Neuester Wetterbericht von vor 1 Stunde und 9 Minuten, um 10:00 UTC
Wind 4 kt aus Süd/Südwest
Temperatur 1°C
Luftfeuchtigkeit 93%
Luftdruck 1023 hPa
Sichtweite: 24.1 km
Leicht bewölkt in der Höhe von 9000 ft

METAR: CYCX 231000Z 20004KT 15SM FEW090 01/00 A3020 RMK AC1 DA-1708FT SLP228

Zeit: 08:09 (11:09 UTC)


TAF: fehlend

Wetterbeobachtungen und Prognosen von mehr als 4000 Flughäfen (METAR und TAF Bericht).

Die verfügbaren Stationen werden durch gelbe und rote Markierungen auf der Karte dargestellt.

Führen Sie die Maus auf sie, um den Namen der Station zu sehen.

Darauf klicken, um die Beobachtung von Wetterbeobachtungen und Prognosen zu sehen.

Um die Karte zu ändern : klicken Sie auf den grünen Tasten mit einem schwarzen Kreuz Zum Vergrößern, auf den grünen Button mit einem Gedankenstrich zu verkleinern, oder auf die grünen Pfeile für benachbarte Karten.


METAR-TAF: